createdAt,value
2023-02-17T00:00:58.458Z,67.10
2023-02-17T00:04:20.123Z,67.01
2023-02-17T00:07:43.437Z,67.00
2023-02-17T00:11:05.787Z,67.29
2023-02-17T00:14:26.991Z,67.44
2023-02-17T00:17:49.003Z,67.48
2023-02-17T00:21:19.098Z,67.49
2023-02-17T00:24:42.571Z,67.39
2023-02-17T00:28:04.327Z,67.76
2023-02-17T00:31:26.416Z,67.90
2023-02-17T00:34:48.187Z,69.16
2023-02-17T00:38:10.172Z,69.71
2023-02-17T00:41:34.747Z,71.19
2023-02-17T00:44:56.324Z,71.89
2023-02-17T00:48:17.678Z,73.04
2023-02-17T00:51:40.013Z,73.37
2023-02-17T00:55:01.692Z,74.11
2023-02-17T00:58:25.280Z,74.85
2023-02-17T01:01:46.576Z,75.16
2023-02-17T01:05:09.101Z,75.21
2023-02-17T01:08:30.487Z,75.53
2023-02-17T01:11:52.246Z,75.71
2023-02-17T01:15:15.822Z,76.08
2023-02-17T01:18:37.315Z,76.19
2023-02-17T01:21:59.086Z,76.47
2023-02-17T01:25:20.970Z,76.63
2023-02-17T01:28:42.643Z,76.77
2023-02-17T01:32:06.190Z,77.58
2023-02-17T01:35:29.185Z,78.09
2023-02-17T01:38:51.272Z,78.26
2023-02-17T01:42:17.279Z,78.50
2023-02-17T01:45:47.127Z,79.13
2023-02-17T01:49:18.522Z,79.42
2023-02-17T01:52:43.206Z,79.71
2023-02-17T01:56:05.400Z,80.15
2023-02-17T01:59:27.818Z,80.54
2023-02-17T02:02:50.820Z,80.59
2023-02-17T02:06:20.075Z,80.92
2023-02-17T02:09:47.566Z,80.71
2023-02-17T02:13:09.966Z,80.86
2023-02-17T02:16:42.827Z,80.96
2023-02-17T02:20:34.338Z,80.89
2023-02-17T02:24:05.253Z,81.74
2023-02-17T02:27:46.901Z,81.47
2023-02-17T02:31:27.642Z,81.77
2023-02-17T02:34:56.913Z,81.80
2023-02-17T02:38:26.762Z,81.51
2023-02-17T02:41:51.393Z,81.87
2023-02-17T02:45:13.690Z,82.27
2023-02-17T02:48:35.597Z,82.15
2023-02-17T02:52:07.238Z,82.55
2023-02-17T02:55:43.170Z,83.07
2023-02-17T02:59:16.687Z,82.99
2023-02-17T03:02:47.227Z,83.19
2023-02-17T03:06:17.963Z,83.18
2023-02-17T03:09:40.960Z,83.50
2023-02-17T03:13:03.448Z,84.02
2023-02-17T03:16:25.662Z,84.60
2023-02-17T03:19:47.910Z,84.21
2023-02-17T03:23:11.261Z,84.70
2023-02-17T03:26:34.312Z,84.61
2023-02-17T03:29:56.219Z,85.07
2023-02-17T03:33:17.660Z,84.92
2023-02-17T03:36:38.900Z,85.33
2023-02-17T03:40:00.748Z,85.31
2023-02-17T03:43:23.988Z,85.10
2023-02-17T03:46:46.979Z,85.10
2023-02-17T03:50:09.715Z,85.16
2023-02-17T03:53:31.259Z,85.19
2023-02-17T03:56:52.560Z,85.40
2023-02-17T04:00:16.436Z,85.36
2023-02-17T04:03:38.684Z,85.93
2023-02-17T04:07:00.650Z,86.19
2023-02-17T04:10:22.156Z,86.72
2023-02-17T04:13:43.877Z,86.69
2023-02-17T04:17:07.033Z,86.88
2023-02-17T04:20:28.823Z,87.47
2023-02-17T04:23:50.556Z,87.55
2023-02-17T04:27:11.818Z,87.34
2023-02-17T04:30:33.933Z,87.51
2023-02-17T04:33:57.042Z,87.49
2023-02-17T04:37:18.871Z,87.75
2023-02-17T04:40:40.623Z,88.18
2023-02-17T04:44:02.083Z,87.86
2023-02-17T04:47:23.984Z,87.92
2023-02-17T04:50:46.883Z,87.93
2023-02-17T04:54:08.447Z,88.18
2023-02-17T04:57:29.790Z,87.83
2023-02-17T05:00:51.951Z,87.91
2023-02-17T05:04:13.402Z,87.94
2023-02-17T05:07:36.074Z,88.15
2023-02-17T05:10:57.902Z,88.92
2023-02-17T05:14:19.566Z,88.60
2023-02-17T05:17:41.245Z,88.79
2023-02-17T05:21:03.103Z,88.95
2023-02-17T05:24:26.285Z,88.90
2023-02-17T05:27:48.298Z,89.33
2023-02-17T05:31:10.793Z,89.53
2023-02-17T05:34:32.092Z,89.70
2023-02-17T05:37:53.897Z,89.43
2023-02-17T05:41:17.199Z,89.50
2023-02-17T05:44:38.757Z,89.74
2023-02-17T05:48:00.059Z,90.16
2023-02-17T05:51:21.770Z,90.49
2023-02-17T05:54:43.562Z,90.32
2023-02-17T05:58:06.498Z,90.55
2023-02-17T06:01:28.144Z,90.47
2023-02-17T06:04:49.996Z,90.66
2023-02-17T06:08:11.505Z,90.52
2023-02-17T06:11:33.366Z,90.98
2023-02-17T06:14:56.484Z,90.86
2023-02-17T06:18:18.348Z,90.96
2023-02-17T06:21:40.672Z,90.79
2023-02-17T06:25:02.349Z,90.37
2023-02-17T06:28:24.163Z,91.03
2023-02-17T06:31:47.466Z,90.86
2023-02-17T06:35:09.743Z,91.05
2023-02-17T06:38:31.356Z,90.77
2023-02-17T06:41:53.310Z,90.71
2023-02-17T06:45:15.124Z,91.04
2023-02-17T06:48:38.391Z,90.97
2023-02-17T06:52:00.152Z,90.82
2023-02-17T06:55:22.003Z,91.00
2023-02-17T06:58:43.907Z,90.94
2023-02-17T07:02:05.820Z,90.87
2023-02-17T07:05:28.844Z,90.65
2023-02-17T07:08:50.698Z,90.89
2023-02-17T07:12:12.442Z,90.63
2023-02-17T07:15:34.451Z,90.58
2023-02-17T07:18:56.538Z,90.31
2023-02-17T07:22:20.133Z,90.34
2023-02-17T07:25:41.598Z,90.10
2023-02-17T07:29:03.523Z,90.20
2023-02-17T07:32:25.352Z,90.12
2023-02-17T07:35:47.013Z,90.01
2023-02-17T07:39:10.170Z,89.93
2023-02-17T07:42:32.012Z,89.90
2023-02-17T07:45:57.694Z,89.70
2023-02-17T07:49:21.116Z,89.97
2023-02-17T07:52:43.003Z,90.05
2023-02-17T07:56:06.590Z,90.11
2023-02-17T07:59:28.846Z,90.43
2023-02-17T08:02:50.204Z,90.44
2023-02-17T08:06:13.196Z,90.29
2023-02-17T08:09:52.425Z,90.10
2023-02-17T08:13:20.980Z,90.19
2023-02-17T08:16:42.910Z,89.67
2023-02-17T08:20:08.948Z,89.59
2023-02-17T08:23:30.966Z,89.50
2023-02-17T08:26:52.940Z,89.45
2023-02-17T08:30:16.319Z,89.23
2023-02-17T08:33:38.244Z,89.45
2023-02-17T08:37:00.301Z,89.51
2023-02-17T08:40:22.175Z,89.98
2023-02-17T08:43:45.152Z,90.12
2023-02-17T08:47:10.432Z,90.00
2023-02-17T08:50:34.186Z,90.24
2023-02-17T08:53:58.211Z,89.95
2023-02-17T08:57:21.476Z,89.95
2023-02-17T09:00:43.273Z,90.00
2023-02-17T09:04:08.165Z,90.04
2023-02-17T09:07:30.050Z,90.13
2023-02-17T09:10:52.636Z,90.32
2023-02-17T09:14:14.526Z,90.53
2023-02-17T09:17:40.412Z,90.54
2023-02-17T09:21:08.973Z,90.57
2023-02-17T09:24:33.059Z,90.77
2023-02-17T09:27:54.639Z,90.53
2023-02-17T09:31:20.261Z,90.71
2023-02-17T09:34:41.966Z,90.60
2023-02-17T09:38:05.111Z,90.99
2023-02-17T09:41:32.856Z,91.61
2023-02-17T09:45:00.956Z,91.77
2023-02-17T09:48:27.138Z,91.95
2023-02-17T09:51:55.418Z,91.93
2023-02-17T09:55:23.369Z,92.10
2023-02-17T09:58:49.387Z,92.04
2023-02-17T10:02:18.703Z,92.50
2023-02-17T10:05:46.735Z,92.43
2023-02-17T10:09:16.376Z,92.58
2023-02-17T10:12:42.489Z,92.79
2023-02-17T10:16:08.497Z,93.36
2023-02-17T10:19:33.559Z,92.79
2023-02-17T10:23:01.155Z,92.99
2023-02-17T10:26:42.275Z,92.76
2023-02-17T10:30:27.612Z,92.45
2023-02-17T10:33:58.218Z,92.46
2023-02-17T10:37:31.081Z,92.67
2023-02-17T10:40:55.986Z,92.40
2023-02-17T10:44:22.129Z,92.50
2023-02-17T10:47:45.606Z,93.14
2023-02-17T10:51:07.885Z,92.62
2023-02-17T10:54:35.789Z,92.77
2023-02-17T10:58:05.553Z,92.91
2023-02-17T11:01:29.323Z,92.78
2023-02-17T11:04:54.974Z,92.52
2023-02-17T11:08:29.998Z,92.59
2023-02-17T11:11:59.054Z,92.61
2023-02-17T11:15:23.170Z,92.79
2023-02-17T11:18:49.396Z,92.37
2023-02-17T11:22:32.821Z,92.14
2023-02-17T11:26:01.377Z,91.70
2023-02-17T11:29:24.137Z,91.65
2023-02-17T11:32:46.124Z,91.85
2023-02-17T11:36:13.648Z,91.87
2023-02-17T11:39:41.948Z,91.50
2023-02-17T11:43:05.367Z,91.07
2023-02-17T11:46:35.234Z,91.51
2023-02-17T11:50:40.945Z,90.88
2023-02-17T11:54:10.932Z,90.32
2023-02-17T11:57:42.187Z,90.77
2023-02-17T12:01:18.531Z,90.56
2023-02-17T12:04:51.222Z,90.35
2023-02-17T12:08:23.047Z,90.30
2023-02-17T12:11:52.859Z,90.14
2023-02-17T12:15:30.515Z,90.15
2023-02-17T12:19:02.762Z,90.17
2023-02-17T12:22:34.111Z,89.56
2023-02-17T12:26:00.549Z,90.32
2023-02-17T12:29:41.357Z,90.57
2023-02-17T12:33:24.196Z,89.97
2023-02-17T12:36:46.971Z,89.99
2023-02-17T12:40:21.546Z,89.93
2023-02-17T12:43:49.406Z,89.42
2023-02-17T12:47:16.043Z,89.69
2023-02-17T12:50:43.235Z,89.15
2023-02-17T12:54:11.960Z,89.16
2023-02-17T12:57:39.934Z,89.77
2023-02-17T13:01:15.325Z,89.52
2023-02-17T13:04:38.021Z,89.41
2023-02-17T13:08:05.819Z,89.39
2023-02-17T13:11:31.431Z,89.14
2023-02-17T13:14:55.990Z,88.57
2023-02-17T13:18:29.518Z,89.25
2023-02-17T13:21:54.715Z,89.20
2023-02-17T13:25:30.659Z,88.57
2023-02-17T13:28:54.306Z,88.71
2023-02-17T13:32:16.037Z,88.23
2023-02-17T13:35:38.347Z,87.85
2023-02-17T13:39:03.012Z,88.50
2023-02-17T13:42:35.564Z,88.21
2023-02-17T13:46:00.861Z,88.37
2023-02-17T13:49:24.610Z,88.78
2023-02-17T13:52:46.210Z,89.14
2023-02-17T13:56:27.648Z,89.25
2023-02-17T13:59:50.938Z,88.67
2023-02-17T14:03:18.999Z,89.23
2023-02-17T14:06:41.108Z,88.50
2023-02-17T14:10:02.985Z,88.97
2023-02-17T14:13:27.319Z,89.62
2023-02-17T14:17:00.902Z,89.84
2023-02-17T14:20:28.244Z,90.40
2023-02-17T14:23:52.263Z,91.40
2023-02-17T14:27:14.627Z,91.85
2023-02-17T14:30:38.940Z,92.18
2023-02-17T14:34:03.758Z,93.11
2023-02-17T14:37:26.275Z,93.90
2023-02-17T14:40:48.456Z,93.94
2023-02-17T14:44:10.512Z,95.18
2023-02-17T14:47:32.114Z,95.53
2023-02-17T14:50:57.057Z,96.21
2023-02-17T14:54:19.642Z,95.88
2023-02-17T14:57:41.490Z,95.94
2023-02-17T15:01:03.410Z,96.56
2023-02-17T15:04:24.871Z,96.85
2023-02-17T15:07:48.045Z,96.91
2023-02-17T15:11:18.826Z,97.65
2023-02-17T15:14:40.779Z,97.45
2023-02-17T15:18:02.642Z,97.58
2023-02-17T15:21:27.924Z,97.30
2023-02-17T15:24:51.046Z,97.63
2023-02-17T15:28:14.428Z,96.95
2023-02-17T15:31:36.326Z,96.64
2023-02-17T15:34:58.847Z,96.41
2023-02-17T15:38:21.399Z,96.61
2023-02-17T15:41:45.853Z,96.99
2023-02-17T15:45:08.633Z,96.76
2023-02-17T15:48:31.938Z,95.67
2023-02-17T15:51:53.520Z,95.41
2023-02-17T15:55:15.188Z,95.42
2023-02-17T15:58:38.327Z,94.73
2023-02-17T16:02:01.451Z,94.38
2023-02-17T16:05:27.209Z,94.10
2023-02-17T16:08:48.952Z,93.73
2023-02-17T16:12:17.328Z,93.47
2023-02-17T16:15:40.495Z,92.47
2023-02-17T16:19:03.297Z,92.75
2023-02-17T16:22:24.636Z,92.16
2023-02-17T16:25:47.968Z,93.01
2023-02-17T16:29:16.036Z,92.47
2023-02-17T16:32:39.014Z,92.21
2023-02-17T16:36:00.817Z,92.27
2023-02-17T16:39:23.353Z,92.26
2023-02-17T16:42:44.876Z,92.32
2023-02-17T16:46:08.453Z,92.24
2023-02-17T16:49:34.068Z,91.39
2023-02-17T16:52:58.428Z,92.12
2023-02-17T16:56:24.122Z,92.44
2023-02-17T16:59:45.987Z,93.54
2023-02-17T17:03:07.690Z,92.63
2023-02-17T17:06:31.083Z,91.60
2023-02-17T17:10:14.666Z,91.83
2023-02-17T17:13:34.364Z,89.93
2023-02-17T17:16:58.883Z,89.41
2023-02-17T17:20:23.959Z,89.25
2023-02-17T17:23:47.402Z,88.78
2023-02-17T17:27:11.767Z,88.14
2023-02-17T17:30:37.261Z,87.67
2023-02-17T17:33:59.392Z,86.97
2023-02-17T17:37:21.264Z,85.94
2023-02-17T17:40:50.302Z,84.87
2023-02-17T17:44:12.432Z,83.87
2023-02-17T17:47:34.200Z,83.90
2023-02-17T17:50:55.998Z,84.71
2023-02-17T17:54:17.844Z,85.60
2023-02-17T17:57:41.039Z,86.49
2023-02-17T18:01:02.573Z,85.60
2023-02-17T18:04:24.601Z,82.05
2023-02-17T18:07:48.512Z,81.67
2023-02-17T18:11:11.592Z,78.86
2023-02-17T18:14:37.836Z,77.71
2023-02-17T18:17:59.231Z,76.34
2023-02-17T18:21:20.882Z,75.08
2023-02-17T18:24:42.765Z,74.62
2023-02-17T18:28:04.846Z,73.50
2023-02-17T18:31:29.566Z,69.38
2023-02-17T18:34:51.727Z,66.38
2023-02-17T18:38:13.891Z,59.57
2023-02-17T18:41:36.341Z,56.57
2023-02-17T18:44:58.071Z,58.13
2023-02-17T18:48:21.058Z,56.91
2023-02-17T18:51:42.665Z,55.14
2023-02-17T18:55:04.505Z,55.62
2023-02-17T18:58:26.108Z,55.79
2023-02-17T19:01:48.012Z,57.09
2023-02-17T19:05:12.087Z,57.32
2023-02-17T19:08:34.144Z,57.88
2023-02-17T19:11:56.285Z,58.01
2023-02-17T19:15:20.934Z,58.67
2023-02-17T19:18:43.611Z,59.05
2023-02-17T19:22:08.815Z,58.69
2023-02-17T19:25:30.690Z,59.33
2023-02-17T19:28:52.429Z,60.08
2023-02-17T19:32:14.937Z,60.32
2023-02-17T19:35:36.427Z,61.59
2023-02-17T19:38:59.418Z,61.51
2023-02-17T19:42:21.326Z,60.48
2023-02-17T19:45:43.492Z,60.20
2023-02-17T19:49:05.667Z,59.61
2023-02-17T19:52:28.916Z,60.04
2023-02-17T19:55:51.927Z,59.96
2023-02-17T19:59:14.377Z,60.34
2023-02-17T20:02:36.389Z,60.56
2023-02-17T20:05:58.310Z,61.29
2023-02-17T20:09:21.654Z,61.86
2023-02-17T20:12:44.818Z,62.50
2023-02-17T20:16:09.082Z,61.29
2023-02-17T20:19:30.880Z,61.29
2023-02-17T20:22:52.815Z,61.81
2023-02-17T20:26:16.437Z,61.39
2023-02-17T20:29:39.260Z,60.90
2023-02-17T20:33:00.642Z,61.11
2023-02-17T20:36:22.995Z,60.54
2023-02-17T20:39:44.597Z,61.58
2023-02-17T20:43:06.676Z,60.87
2023-02-17T20:46:30.509Z,60.61
2023-02-17T20:49:52.009Z,60.69
2023-02-17T20:53:15.461Z,61.36
2023-02-17T20:56:40.541Z,61.22
2023-02-17T21:00:05.484Z,61.08
2023-02-17T21:03:29.257Z,60.75
2023-02-17T21:06:51.766Z,61.13
2023-02-17T21:10:18.681Z,60.82
2023-02-17T21:13:40.270Z,61.32
2023-02-17T21:17:02.003Z,61.19
2023-02-17T21:20:25.746Z,61.45
2023-02-17T21:23:47.952Z,61.83
2023-02-17T21:27:09.878Z,61.25
2023-02-17T21:30:31.364Z,60.85
2023-02-17T21:33:53.285Z,61.10
2023-02-17T21:37:16.451Z,61.20
2023-02-17T21:40:37.979Z,60.90
2023-02-17T21:44:18.041Z,60.78
2023-02-17T21:47:40.836Z,61.43
2023-02-17T21:51:07.300Z,60.90
2023-02-17T21:54:30.338Z,60.51
2023-02-17T21:57:51.928Z,60.41
2023-02-17T22:01:13.815Z,61.23
2023-02-17T22:04:35.629Z,61.37
2023-02-17T22:07:57.454Z,61.18
2023-02-17T22:11:23.032Z,61.33
2023-02-17T22:14:44.640Z,61.09
2023-02-17T22:18:06.359Z,61.83
2023-02-17T22:21:28.418Z,61.14
2023-02-17T22:24:50.184Z,61.76
2023-02-17T22:28:14.491Z,62.06
2023-02-17T22:31:36.677Z,61.88
2023-02-17T22:34:58.496Z,61.33
2023-02-17T22:38:20.207Z,61.83
2023-02-17T22:41:42.041Z,61.54
2023-02-17T22:45:06.727Z,61.52
2023-02-17T22:48:30.249Z,61.27
2023-02-17T22:51:52.509Z,61.65
2023-02-17T22:55:13.954Z,60.82
2023-02-17T22:58:36.824Z,60.85
2023-02-17T23:02:00.671Z,60.87
2023-02-17T23:05:22.521Z,61.88
2023-02-17T23:08:44.611Z,61.68
2023-02-17T23:12:06.764Z,61.28
2023-02-17T23:15:40.258Z,61.29
2023-02-17T23:19:06.786Z,61.38
2023-02-17T23:22:29.025Z,61.49
2023-02-17T23:25:52.875Z,61.29
2023-02-17T23:29:15.080Z,61.14
2023-02-17T23:32:37.045Z,60.94
2023-02-17T23:35:59.780Z,61.02
2023-02-17T23:39:21.752Z,61.25
2023-02-17T23:42:43.696Z,61.51
2023-02-17T23:46:05.950Z,61.13
2023-02-17T23:49:27.756Z,61.46
2023-02-17T23:52:50.496Z,61.65
2023-02-17T23:56:15.179Z,61.85
2023-02-17T23:59:37.500Z,61.95
